Time;durP1;ratioP1;P1;durP2;ratioP2;P2;SDS_P1;SDS_P2;PMS_P1;PMS_P2;Temp;Humidity;BMP_temperature;BMP_pressure;BME280_temperature;BME280_humidity;BME280_pressure;Samples;Min_cycle;Max_cycle;Signal;HPM_P1;HPM_P2
2023/07/24 00:00:29;;;;;;;1.77;0.70;;;;;24.60;99484.00;;;;2050507;28;20365;-61
2023/07/24 00:01:30;;;;;;;1.10;0.57;;;;;24.60;99490.00;;;;2039300;28;20235;-62
2023/07/24 00:02:30;;;;;;;1.10;0.60;;;;;24.60;99490.00;;;;2044942;28;20644;-54
2023/07/24 00:03:30;;;;;;;1.10;0.60;;;;;24.60;99484.00;;;;2051747;28;20302;-57
2023/07/24 00:04:31;;;;;;;0.93;0.63;;;;;24.60;99483.00;;;;2051739;28;20216;-56
2023/07/24 00:05:31;;;;;;;1.00;0.70;;;;;24.60;99473.00;;;;2043884;28;20224;-56
2023/07/24 00:06:32;;;;;;;1.30;1.07;;;;;24.60;99482.00;;;;2042434;28;20212;-54
2023/07/24 00:07:32;;;;;;;0.80;0.50;;;;;24.60;99477.00;;;;2053043;28;20211;-57
2023/07/24 00:08:32;;;;;;;1.00;0.70;;;;;24.60;99458.00;;;;2051763;28;20322;-57
2023/07/24 00:09:33;;;;;;;0.80;0.60;;;;;24.60;99477.00;;;;2052865;28;20699;-56
2023/07/24 00:10:33;;;;;;;1.00;0.70;;;;;24.60;99470.00;;;;2052894;28;20966;-57
2023/07/24 00:11:33;;;;;;;1.40;0.60;;;;;24.60;99471.00;;;;2041511;28;20226;-57
2023/07/24 00:12:34;;;;;;;1.10;0.87;;;;;24.60;99465.00;;;;2045993;28;20251;-53
2023/07/24 00:13:34;;;;;;;1.03;0.80;;;;;24.60;99468.00;;;;2051685;28;20235;-53
2023/07/24 00:14:34;;;;;;;1.00;0.83;;;;;24.60;99466.00;;;;2050987;28;20215;-55
2023/07/24 00:15:35;;;;;;;1.20;0.80;;;;;24.60;99463.00;;;;2044202;28;20267;-57
2023/07/24 00:16:35;;;;;;;0.90;0.60;;;;;24.60;99462.00;;;;2042455;28;20219;-56
2023/07/24 00:17:35;;;;;;;1.10;0.80;;;;;24.60;99458.00;;;;2052738;28;20230;-57
2023/07/24 00:18:36;;;;;;;1.20;0.80;;;;;24.60;99382.00;;;;2051611;28;20250;-57
2023/07/24 00:19:36;;;;;;;1.03;0.87;;;;;24.60;99456.00;;;;2050263;28;20713;-56
2023/07/24 00:20:36;;;;;;;0.80;0.63;;;;;24.60;99468.00;;;;2050750;28;20258;-59
2023/07/24 00:21:37;;;;;;;1.10;0.70;;;;;24.60;99463.00;;;;2042299;28;20222;-57
2023/07/24 00:22:37;;;;;;;1.13;0.67;;;;;24.60;99459.00;;;;2051732;28;20219;-57
2023/07/24 00:23:37;;;;;;;1.00;0.80;;;;;24.60;99456.00;;;;2051658;28;20310;-57
2023/07/24 00:24:38;;;;;;;1.63;0.90;;;;;24.50;99452.00;;;;2051629;28;20222;-56
2023/07/24 00:25:38;;;;;;;1.63;0.87;;;;;24.60;99446.00;;;;2048837;28;20226;-59
2023/07/24 00:26:39;;;;;;;1.40;0.77;;;;;24.60;99452.00;;;;2045243;28;20246;-58
2023/07/24 00:27:39;;;;;;;0.90;0.67;;;;;24.60;99448.00;;;;2058283;28;20219;-56
2023/07/24 00:28:39;;;;;;;0.90;0.70;;;;;24.60;99447.00;;;;2045283;28;20224;-56
2023/07/24 00:29:40;;;;;;;1.13;0.67;;;;;24.50;99443.00;;;;2051309;28;20714;-56
2023/07/24 00:30:40;;;;;;;1.10;0.70;;;;;24.60;99436.00;;;;2043567;28;20615;-58
2023/07/24 00:31:41;;;;;;;1.20;0.60;;;;;24.50;99444.00;;;;2052490;28;20208;-57
2023/07/24 00:32:41;;;;;;;0.90;0.70;;;;;24.60;99447.00;;;;2051579;28;20274;-57
2023/07/24 00:33:41;;;;;;;1.00;0.63;;;;;24.60;99445.00;;;;2053201;28;20305;-57
2023/07/24 00:34:42;;;;;;;0.80;0.70;;;;;24.60;99443.00;;;;2048350;28;20238;-57
2023/07/24 00:35:42;;;;;;;0.80;0.60;;;;;24.60;99438.00;;;;2038883;28;21706;-60
2023/07/24 00:36:42;;;;;;;0.87;0.70;;;;;24.60;99440.00;;;;2053676;28;20319;-56
2023/07/24 00:37:43;;;;;;;1.10;0.90;;;;;24.60;99445.00;;;;2054538;28;20237;-59
2023/07/24 00:38:43;;;;;;;1.27;0.73;;;;;24.60;99448.00;;;;2054715;28;20207;-54
2023/07/24 00:39:43;;;;;;;1.03;0.80;;;;;24.60;99448.00;;;;2052518;28;20742;-56
2023/07/24 00:40:44;;;;;;;0.90;0.70;;;;;24.60;99446.00;;;;2041209;28;20842;-56
2023/07/24 00:41:44;;;;;;;1.10;0.70;;;;;24.60;99445.00;;;;2049462;28;20306;-57
2023/07/24 00:42:48;;;;;;;1.10;0.77;;;;;24.60;99438.00;;;;2054374;28;20236;-57
2023/07/24 00:43:48;;;;;;;1.13;0.70;;;;;24.60;99439.00;;;;2053297;28;20212;-57
2023/07/24 00:44:48;;;;;;;1.27;0.83;;;;;24.60;99443.00;;;;2052457;28;20455;-57
2023/07/24 00:45:49;;;;;;;0.80;0.70;;;;;24.60;99447.00;;;;2044368;28;20211;-56
2023/07/24 00:46:49;;;;;;;1.10;0.70;;;;;24.60;99445.00;;;;2052837;28;20211;-57
2023/07/24 00:47:50;;;;;;;0.80;0.60;;;;;24.60;99445.00;;;;2053532;28;20698;-57
2023/07/24 00:48:51;;;;;;;0.90;0.70;;;;;24.60;99449.00;;;;2051442;28;20254;-56
2023/07/24 00:49:51;;;;;;;1.20;0.80;;;;;24.60;99444.00;;;;2047416;28;20448;-56
2023/07/24 00:50:52;;;;;;;1.67;0.90;;;;;24.60;99445.00;;;;2042844;28;20459;-57
2023/07/24 00:51:52;;;;;;;0.90;0.63;;;;;24.60;99449.00;;;;2043554;28;20219;-54
2023/07/24 00:52:53;;;;;;;0.90;0.70;;;;;24.50;99435.00;;;;2040129;28;20261;-56
2023/07/24 00:53:56;;;;;;;1.57;0.70;;;;;24.60;99443.00;;;;2038479;28;20284;-57
2023/07/24 00:54:57;;;;;;;0.90;0.70;;;;;24.60;99441.00;;;;2033269;28;20284;-56
2023/07/24 00:55:57;;;;;;;1.10;1.00;;;;;24.60;99442.00;;;;2039210;28;20211;-56
2023/07/24 00:56:57;;;;;;;1.03;0.70;;;;;24.50;99438.00;;;;2052658;28;20219;-57
2023/07/24 00:57:58;;;;;;;1.17;0.80;;;;;24.50;99432.00;;;;2052348;28;20329;-57
2023/07/24 00:58:59;;;;;;;1.40;0.80;;;;;24.60;99432.00;;;;2050170;28;20208;-56
2023/07/24 00:59:59;;;;;;;1.10;0.77;;;;;24.60;99428.00;;;;2049961;28;20455;-57
2023/07/24 01:00:59;;;;;;;0.90;0.60;;;;;24.60;99434.00;;;;2046323;28;20576;-57
2023/07/24 01:02:00;;;;;;;1.00;0.77;;;;;24.60;99415.00;;;;2061297;28;20636;-57
2023/07/24 01:03:00;;;;;;;0.90;0.63;;;;;24.50;99430.00;;;;2052807;28;20719;-57
2023/07/24 01:04:00;;;;;;;1.07;0.70;;;;;24.50;99435.00;;;;2050101;28;20706;-56
2023/07/24 01:05:01;;;;;;;1.10;0.90;;;;;24.60;99439.00;;;;2050950;28;20575;-56
2023/07/24 01:06:02;;;;;;;1.00;0.60;;;;;24.50;99429.00;;;;2042923;28;20243;-55
2023/07/24 01:07:02;;;;;;;0.90;0.65;;;;;24.60;99424.00;;;;2050871;28;20267;-56
2023/07/24 01:08:03;;;;;;;1.27;0.80;;;;;24.60;99430.00;;;;2052829;28;20243;-58
2023/07/24 01:09:04;;;;;;;1.27;1.00;;;;;24.50;99440.00;;;;2050362;28;20246;-53
2023/07/24 01:10:06;;;;;;;1.00;0.70;;;;;24.50;99435.00;;;;2052017;28;20714;-58
2023/07/24 01:11:10;;;;;;;0.90;0.70;;;;;24.50;99406.00;;;;2043330;28;20224;-58
2023/07/24 01:12:16;;;;;;;0.93;0.75;;;;;24.60;99419.00;;;;2051041;28;20215;-58
2023/07/24 01:13:19;;;;;;;1.05;0.70;;;;;24.50;99419.00;;;;2048155;28;20675;-57
2023/07/24 01:14:29;;;;;;;1.20;0.80;;;;;24.50;99412.00;;;;2050393;28;20218;-56
2023/07/24 01:15:37;;;;;;;1.10;0.88;;;;;24.50;99405.00;;;;2053939;28;20223;-57
2023/07/24 01:16:38;;;;;;;0.93;0.73;;;;;24.50;99406.00;;;;2042692;28;20219;-54
2023/07/24 01:17:41;;;;;;;1.20;0.73;;;;;24.50;99412.00;;;;2052470;28;20916;-57
2023/07/24 01:18:41;;;;;;;0.98;0.65;;;;;24.50;99402.00;;;;2053354;28;20263;-57
2023/07/24 01:19:48;;;;;;;1.03;0.63;;;;;24.50;99400.00;;;;2044072;28;20220;-57
2023/07/24 01:20:51;;;;;;;1.23;0.82;;;;;24.50;99407.00;;;;2031039;28;20765;-57
2023/07/24 01:22:02;;;;;;;1.02;0.82;;;;;24.50;99404.00;;;;2060164;28;20246;-59
2023/07/24 01:23:22;;;;;;;1.15;0.82;;;;;24.50;99397.00;;;;2053688;28;20222;-57
2023/07/24 01:24:46;;;;;;;0.82;0.60;;;;;24.50;99398.00;;;;2050839;28;20243;-57
2023/07/24 01:25:56;;;;;;;0.80;0.60;;;;;24.50;99395.00;;;;2035304;28;20222;-56
2023/07/24 01:26:57;;;;;;;1.10;0.88;;;;;24.50;99385.00;;;;2049741;28;20270;-57
2023/07/24 01:27:57;;;;;;;0.87;0.63;;;;;24.50;99393.00;;;;2049566;28;20231;-57
2023/07/24 01:28:58;;;;;;;0.80;0.70;;;;;24.50;99397.00;;;;2048232;28;20346;-58
2023/07/24 01:29:58;;;;;;;1.00;0.80;;;;;24.50;99390.00;;;;2054263;28;20688;-57
2023/07/24 01:30:58;;;;;;;1.17;0.73;;;;;24.50;99394.00;;;;2044642;28;20223;-56
2023/07/24 01:31:59;;;;;;;1.20;0.90;;;;;24.50;99387.00;;;;2060857;28;20223;-57
2023/07/24 01:32:59;;;;;;;0.80;0.60;;;;;24.50;99388.00;;;;2050782;28;20727;-56
2023/07/24 01:33:59;;;;;;;0.80;0.67;;;;;24.50;99383.00;;;;2052237;28;20207;-57
2023/07/24 01:35:00;;;;;;;1.10;1.00;;;;;24.50;99383.00;;;;2049479;28;20266;-56
2023/07/24 01:36:00;;;;;;;1.00;0.80;;;;;24.50;99377.00;;;;2039558;28;20231;-56
2023/07/24 01:37:01;;;;;;;1.00;0.70;;;;;24.50;99383.00;;;;2053278;28;20294;-60
2023/07/24 01:38:01;;;;;;;1.13;0.80;;;;;24.50;99376.00;;;;2044464;28;20204;-57
2023/07/24 01:39:01;;;;;;;1.33;0.90;;;;;24.50;99376.00;;;;2037467;29;20220;-60
2023/07/24 01:40:02;;;;;;;0.90;0.73;;;;;24.50;99365.00;;;;2042001;28;20216;-57
2023/07/24 01:41:03;;;;;;;0.90;0.70;;;;;24.50;99368.00;;;;2034125;28;20280;-57
2023/07/24 01:42:03;;;;;;;1.03;0.80;;;;;24.50;99362.00;;;;2045037;28;20224;-60
2023/07/24 01:43:03;;;;;;;1.40;0.90;;;;;24.50;99368.00;;;;2051731;28;20799;-58
2023/07/24 01:44:05;;;;;;;1.00;0.80;;;;;24.50;99356.00;;;;2037222;29;20236;-60
2023/07/24 01:45:06;;;;;;;0.90;0.75;;;;;24.50;99361.00;;;;2037002;29;20235;-59
2023/07/24 01:46:06;;;;;;;1.40;0.93;;;;;24.50;99366.00;;;;2037865;28;20269;-56
2023/07/24 01:47:06;;;;;;;1.20;0.60;;;;;24.50;99358.00;;;;2061289;28;20230;-57
2023/07/24 01:48:07;;;;;;;1.00;0.70;;;;;24.50;99356.00;;;;2056828;28;20251;-59
2023/07/24 01:49:07;;;;;;;1.03;0.93;;;;;24.50;99365.00;;;;2050065;28;20303;-56
2023/07/24 01:50:08;;;;;;;1.00;0.73;;;;;24.50;99361.00;;;;2047023;28;20228;-56
2023/07/24 01:51:08;;;;;;;1.70;0.83;;;;;24.50;99350.00;;;;2047482;28;20230;-57
2023/07/24 01:52:08;;;;;;;0.90;0.70;;;;;24.50;99353.00;;;;2059758;28;20304;-57
2023/07/24 01:53:09;;;;;;;1.00;0.63;;;;;24.50;99349.00;;;;2057661;28;20290;-56
2023/07/24 01:54:09;;;;;;;0.93;0.80;;;;;24.20;99363.00;;;;2053487;28;20306;-58
2023/07/24 01:55:10;;;;;;;0.90;0.50;;;;;24.50;99353.00;;;;2051553;28;20561;-58
2023/07/24 01:56:10;;;;;;;1.30;1.07;;;;;24.50;99353.00;;;;2043592;28;20235;-57
2023/07/24 01:57:10;;;;;;;1.10;0.80;;;;;24.50;99348.00;;;;2052963;28;20231;-57
2023/07/24 01:58:11;;;;;;;1.30;0.80;;;;;24.50;99345.00;;;;2053658;28;20303;-57
2023/07/24 01:59:11;;;;;;;0.80;0.60;;;;;24.50;99342.00;;;;2051294;28;20219;-57
2023/07/24 02:00:12;;;;;;;1.43;0.77;;;;;24.50;99344.00;;;;2053725;28;20696;-56
2023/07/24 02:01:12;;;;;;;1.10;0.80;;;;;24.50;99339.00;;;;2047814;28;20641;-56
2023/07/24 02:02:12;;;;;;;0.90;0.70;;;;;24.50;99339.00;;;;2060606;28;20223;-56
2023/07/24 02:03:13;;;;;;;0.90;0.73;;;;;24.50;99337.00;;;;2056831;28;20223;-57
2023/07/24 02:04:13;;;;;;;0.97;0.70;;;;;24.30;99342.00;;;;2052586;28;20295;-57
2023/07/24 02:05:13;;;;;;;1.10;0.90;;;;;24.50;99339.00;;;;2053131;28;20223;-60
2023/07/24 02:06:14;;;;;;;1.10;0.80;;;;;24.50;99343.00;;;;2042273;28;20219;-59
2023/07/24 02:07:14;;;;;;;1.47;0.93;;;;;24.50;99334.00;;;;2053715;28;20223;-53
2023/07/24 02:08:14;;;;;;;1.17;1.00;;;;;24.50;99334.00;;;;2054007;28;20219;-55
2023/07/24 02:09:15;;;;;;;0.90;0.70;;;;;24.50;99332.00;;;;2050931;28;20261;-57
2023/07/24 02:10:16;;;;;;;1.10;0.80;;;;;24.50;99339.00;;;;2048761;28;20212;-59
2023/07/24 02:11:16;;;;;;;1.13;0.80;;;;;24.50;99345.00;;;;2042514;28;20478;-57
2023/07/24 02:12:17;;;;;;;1.50;0.90;;;;;24.50;99347.00;;;;2047956;28;20666;-57
2023/07/24 02:13:17;;;;;;;1.20;0.80;;;;;24.50;99340.00;;;;2043216;28;20648;-57
2023/07/24 02:14:17;;;;;;;1.10;0.87;;;;;24.50;99336.00;;;;2049028;28;20282;-57
2023/07/24 02:15:18;;;;;;;1.10;0.70;;;;;24.50;99337.00;;;;2050279;28;20219;-57
2023/07/24 02:16:18;;;;;;;1.17;0.90;;;;;24.50;99336.00;;;;2042026;28;20316;-57
2023/07/24 02:17:18;;;;;;;1.60;0.97;;;;;24.50;99336.00;;;;2052879;28;20220;-57
2023/07/24 02:18:19;;;;;;;1.10;0.80;;;;;24.50;99333.00;;;;2052050;28;20211;-57
2023/07/24 02:19:19;;;;;;;1.10;0.90;;;;;24.50;99340.00;;;;2050900;28;20203;-57
2023/07/24 02:20:19;;;;;;;1.40;0.90;;;;;24.50;99332.00;;;;2052846;28;20717;-57
2023/07/24 02:21:20;;;;;;;1.00;0.70;;;;;24.50;99332.00;;;;2043449;28;20673;-56
2023/07/24 02:22:20;;;;;;;1.13;0.83;;;;;24.50;99334.00;;;;2053553;28;20204;-57
2023/07/24 02:23:20;;;;;;;0.90;0.70;;;;;24.50;99333.00;;;;2052802;28;20215;-56
2023/07/24 02:24:21;;;;;;;1.10;0.80;;;;;24.50;99327.00;;;;2053528;28;20266;-57
2023/07/24 02:25:21;;;;;;;0.90;0.70;;;;;24.50;99327.00;;;;2050213;28;20287;-61
2023/07/24 02:26:21;;;;;;;1.37;0.97;;;;;24.50;99326.00;;;;2043008;28;20227;-59
2023/07/24 02:27:31;;;;;;;1.17;0.87;;;;;24.50;99378.00;;;;2049631;28;20295;-57
2023/07/24 02:28:31;;;;;;;1.00;0.80;;;;;24.50;99327.00;;;;2051317;28;20223;-58
2023/07/24 02:29:31;;;;;;;1.40;0.80;;;;;24.50;99322.00;;;;2052385;28;20283;-55
2023/07/24 02:30:32;;;;;;;0.90;0.70;;;;;24.50;99318.00;;;;2052805;28;20235;-57
2023/07/24 02:31:32;;;;;;;0.90;0.83;;;;;24.50;99313.00;;;;2044087;28;20219;-57
2023/07/24 02:32:32;;;;;;;1.00;0.80;;;;;24.50;99322.00;;;;2050357;28;20308;-57
2023/07/24 02:33:33;;;;;;;0.93;0.60;;;;;24.50;99314.00;;;;2047024;28;20224;-57
2023/07/24 02:34:33;;;;;;;3.27;0.63;;;;;24.50;99316.00;;;;2047032;28;20315;-57
2023/07/24 02:35:40;;;;;;;0.97;0.60;;;;;24.50;99315.00;;;;2048092;28;20708;-56
2023/07/24 02:36:41;;;;;;;1.00;0.90;;;;;24.50;99309.00;;;;2042760;28;20695;-56
2023/07/24 02:37:41;;;;;;;1.42;0.90;;;;;24.50;99314.00;;;;2051156;28;20298;-56
2023/07/24 02:38:41;;;;;;;2.40;1.10;;;;;24.50;99313.00;;;;2046689;28;20291;-56
2023/07/24 02:39:42;;;;;;;1.00;0.90;;;;;24.50;99320.00;;;;2052177;28;20219;-56
2023/07/24 02:40:43;;;;;;;1.20;0.77;;;;;24.50;99310.00;;;;2043506;28;20672;-56
2023/07/24 02:41:43;;;;;;;1.20;0.90;;;;;24.50;99306.00;;;;2052419;28;20614;-56
2023/07/24 02:42:44;;;;;;;1.03;0.83;;;;;24.50;99310.00;;;;2050982;28;20262;-56
2023/07/24 02:43:44;;;;;;;0.97;0.73;;;;;24.50;99309.00;;;;2047759;28;20219;-56
2023/07/24 02:44:44;;;;;;;1.10;0.70;;;;;24.50;99310.00;;;;2050974;28;20211;-55
2023/07/24 02:45:45;;;;;;;1.00;0.80;;;;;24.50;99305.00;;;;2042992;28;20295;-56
2023/07/24 02:46:45;;;;;;;1.00;0.70;;;;;24.50;99311.00;;;;2051932;28;20672;-56
2023/07/24 02:47:45;;;;;;;0.97;0.77;;;;;24.50;99313.00;;;;2043285;28;20915;-56
2023/07/24 02:48:46;;;;;;;1.00;0.73;;;;;24.50;99310.00;;;;2051993;28;20598;-56
2023/07/24 02:49:46;;;;;;;1.50;1.10;;;;;24.50;99314.00;;;;2053223;28;20223;-56
2023/07/24 02:50:49;;;;;;;0.80;0.60;;;;;24.50;99318.00;;;;2034091;28;20224;-56
2023/07/24 02:51:50;;;;;;;1.15;0.98;;;;;24.50;99312.00;;;;2041833;28;22271;-58
2023/07/24 02:52:50;;;;;;;1.33;1.10;;;;;24.50;99317.00;;;;2045143;28;20242;-57
2023/07/24 02:53:50;;;;;;;1.00;0.77;;;;;24.50;99321.00;;;;2049933;28;20298;-57
2023/07/24 02:54:51;;;;;;;1.20;0.90;;;;;24.50;99321.00;;;;2045697;28;20215;-56
2023/07/24 02:55:51;;;;;;;1.60;0.90;;;;;24.30;99318.00;;;;2041769;28;20597;-55
2023/07/24 02:56:51;;;;;;;1.00;0.70;;;;;24.50;99308.00;;;;2050859;28;20215;-55
2023/07/24 02:57:52;;;;;;;0.90;0.80;;;;;24.50;99310.00;;;;2042949;28;20576;-55
2023/07/24 02:58:52;;;;;;;1.40;0.87;;;;;24.20;99304.00;;;;2052108;28;20215;-57
2023/07/24 02:59:52;;;;;;;1.30;0.90;;;;;24.50;99313.00;;;;2041102;28;20245;-56
2023/07/24 03:00:53;;;;;;;1.00;0.90;;;;;24.50;99182.00;;;;2048829;28;20302;-57
2023/07/24 03:01:53;;;;;;;1.10;0.87;;;;;24.50;99298.00;;;;2051267;28;20698;-53
2023/07/24 03:02:54;;;;;;;1.00;0.63;;;;;24.50;99289.00;;;;2052745;28;20215;-61
2023/07/24 03:03:54;;;;;;;1.80;0.87;;;;;24.50;99281.00;;;;2051057;28;20298;-58
2023/07/24 03:04:54;;;;;;;1.10;0.83;;;;;24.50;99276.00;;;;2044308;28;20277;-59
2023/07/24 03:05:55;;;;;;;1.10;1.00;;;;;24.50;99289.00;;;;2036959;28;20212;-57
2023/07/24 03:06:55;;;;;;;1.10;1.00;;;;;24.50;99291.00;;;;2059647;28;20238;-57
2023/07/24 03:07:55;;;;;;;3.87;1.10;;;;;24.50;99309.00;;;;2058357;28;20218;-55
2023/07/24 03:08:56;;;;;;;1.40;1.00;;;;;24.50;99295.00;;;;2052879;28;20212;-54
2023/07/24 03:09:56;;;;;;;1.20;0.73;;;;;24.50;99292.00;;;;2044409;28;20215;-56
2023/07/24 03:10:57;;;;;;;1.50;1.00;;;;;24.50;99289.00;;;;2036869;28;20235;-57
2023/07/24 03:11:57;;;;;;;0.90;0.67;;;;;24.50;99288.00;;;;2050924;28;20219;-56
2023/07/24 03:12:57;;;;;;;1.23;1.00;;;;;24.50;99290.00;;;;2052862;28;20311;-57
2023/07/24 03:13:58;;;;;;;1.20;1.00;;;;;24.50;99291.00;;;;2052173;28;20220;-58
2023/07/24 03:14:58;;;;;;;0.90;0.80;;;;;24.50;99292.00;;;;2047852;28;20215;-53
2023/07/24 03:15:58;;;;;;;1.33;0.90;;;;;24.50;99310.00;;;;2035687;28;20310;-56
2023/07/24 03:16:59;;;;;;;1.00;0.80;;;;;24.50;99295.00;;;;2051740;28;20223;-56
2023/07/24 03:17:59;;;;;;;1.87;1.10;;;;;24.50;99304.00;;;;2052312;28;20306;-57
2023/07/24 03:19:00;;;;;;;1.63;1.00;;;;;24.50;99294.00;;;;2051164;28;20769;-56
2023/07/24 03:20:08;;;;;;;1.03;0.83;;;;;24.50;99293.00;;;;2052545;28;20714;-56
2023/07/24 03:21:08;;;;;;;1.73;1.10;;;;;24.50;99276.00;;;;2042002;28;20228;-56
2023/07/24 03:22:09;;;;;;;1.33;0.80;;;;;24.50;99292.00;;;;2048872;28;20463;-56
2023/07/24 03:23:09;;;;;;;1.53;0.80;;;;;24.50;99322.00;;;;2050522;28;20728;-58
2023/07/24 03:24:09;;;;;;;1.50;1.00;;;;;24.50;99280.00;;;;2052545;28;20227;-59
2023/07/24 03:25:10;;;;;;;1.43;1.10;;;;;24.50;99291.00;;;;2045811;28;20809;-57
2023/07/24 03:26:10;;;;;;;1.10;0.80;;;;;24.50;99292.00;;;;2039971;28;20715;-56
2023/07/24 03:27:11;;;;;;;1.20;1.00;;;;;24.50;99292.00;;;;2052339;28;20226;-56
2023/07/24 03:28:11;;;;;;;1.87;1.33;;;;;24.50;99290.00;;;;2050872;28;20262;-55
2023/07/24 03:29:11;;;;;;;1.10;0.90;;;;;24.50;99288.00;;;;2052530;28;20277;-54
2023/07/24 03:30:11;;;;;;;1.40;1.10;;;;;24.50;99294.00;;;;2052891;28;20215;-56
2023/07/24 03:31:12;;;;;;;1.30;1.10;;;;;24.50;99281.00;;;;2037140;28;20299;-56
2023/07/24 03:32:14;;;;;;;1.40;1.10;;;;;24.50;99277.00;;;;2051417;28;20242;-57
2023/07/24 03:33:14;;;;;;;1.27;0.93;;;;;24.50;99279.00;;;;2050780;28;20338;-56
2023/07/24 03:34:14;;;;;;;1.50;1.00;;;;;24.50;99276.00;;;;2052831;28;20227;-56
2023/07/24 03:35:15;;;;;;;1.27;0.93;;;;;24.50;99279.00;;;;2051848;28;20688;-56
2023/07/24 03:36:15;;;;;;;0.90;0.73;;;;;24.50;99265.00;;;;2037995;28;20220;-61
2023/07/24 03:37:15;;;;;;;1.20;1.00;;;;;24.50;99276.00;;;;2049342;28;20234;-57
2023/07/24 03:38:16;;;;;;;1.30;0.97;;;;;24.50;99265.00;;;;2051556;28;20216;-57
2023/07/24 03:39:16;;;;;;;1.03;0.80;;;;;24.50;99271.00;;;;2051786;28;20302;-57
2023/07/24 03:40:17;;;;;;;1.00;0.83;;;;;24.50;99269.00;;;;2051573;28;20219;-57
2023/07/24 03:41:17;;;;;;;1.10;0.83;;;;;24.50;99271.00;;;;2043203;28;20302;-56
2023/07/24 03:42:28;;;;;;;1.20;1.07;;;;;24.50;99263.00;;;;2049080;28;20220;-56
2023/07/24 03:43:28;;;;;;;1.20;0.95;;;;;24.50;99270.00;;;;2047991;28;20216;-56
2023/07/24 03:44:28;;;;;;;1.07;0.80;;;;;24.50;99258.00;;;;2046522;28;20247;-56
2023/07/24 03:45:29;;;;;;;1.27;1.10;;;;;24.50;99264.00;;;;2051921;28;20223;-53
2023/07/24 03:46:29;;;;;;;1.20;1.10;;;;;24.50;99256.00;;;;2042149;28;20215;-53
2023/07/24 03:47:29;;;;;;;1.13;0.87;;;;;24.50;99253.00;;;;2051008;28;20230;-60
2023/07/24 03:48:30;;;;;;;1.20;1.00;;;;;24.50;99255.00;;;;2052325;28;20223;-56
2023/07/24 03:49:30;;;;;;;1.37;1.00;;;;;24.50;99276.00;;;;2051516;28;20224;-56
2023/07/24 03:50:30;;;;;;;1.20;0.77;;;;;24.50;99245.00;;;;2045010;28;20227;-56
2023/07/24 03:51:32;;;;;;;1.07;0.90;;;;;24.50;99252.00;;;;2040626;28;20215;-56
2023/07/24 03:52:32;;;;;;;1.20;0.90;;;;;24.50;99255.00;;;;2051534;28;20692;-56
2023/07/24 03:53:32;;;;;;;1.57;1.00;;;;;24.50;99247.00;;;;2050772;28;20231;-56
2023/07/24 03:54:33;;;;;;;1.00;0.90;;;;;24.50;99248.00;;;;2051462;28;20243;-56
2023/07/24 03:55:33;;;;;;;1.20;0.90;;;;;24.50;99246.00;;;;2044847;28;20220;-57
2023/07/24 03:56:33;;;;;;;1.00;0.90;;;;;24.50;99242.00;;;;2040171;28;20278;-56
2023/07/24 03:57:34;;;;;;;1.00;0.90;;;;;24.50;99241.00;;;;2045542;28;20311;-56
2023/07/24 03:58:34;;;;;;;1.17;0.80;;;;;24.50;99246.00;;;;2049807;28;20270;-56
2023/07/24 03:59:34;;;;;;;1.00;0.77;;;;;24.50;99247.00;;;;2052224;28;20303;-56
2023/07/24 04:00:35;;;;;;;1.10;1.00;;;;;24.50;99282.00;;;;2052159;28;20215;-56
2023/07/24 04:01:35;;;;;;;1.17;0.90;;;;;24.50;99247.00;;;;2048332;28;20707;-56
2023/07/24 04:02:35;;;;;;;1.47;0.90;;;;;24.50;99240.00;;;;2059622;28;20310;-56
2023/07/24 04:03:36;;;;;;;1.43;1.00;;;;;24.50;99250.00;;;;2051589;28;20231;-56
2023/07/24 04:04:37;;;;;;;1.30;0.90;;;;;24.50;99247.00;;;;2046116;28;20292;-56
2023/07/24 04:05:37;;;;;;;0.90;0.80;;;;;24.50;99241.00;;;;2046919;28;20223;-56
2023/07/24 04:06:37;;;;;;;2.00;0.80;;;;;24.50;99239.00;;;;2039734;28;20913;-56
2023/07/24 04:07:38;;;;;;;1.20;0.80;;;;;24.50;99239.00;;;;2049307;28;20223;-56
2023/07/24 04:08:38;;;;;;;1.13;0.80;;;;;24.50;99243.00;;;;2045257;28;20212;-56
2023/07/24 04:09:38;;;;;;;1.40;1.10;;;;;24.50;99243.00;;;;2047935;28;20224;-54
2023/07/24 04:10:39;;;;;;;1.40;1.00;;;;;24.50;99260.00;;;;2052504;28;20224;-61
2023/07/24 04:11:39;;;;;;;1.30;1.20;;;;;24.50;99241.00;;;;2041353;28;20714;-58
2023/07/24 04:12:39;;;;;;;1.30;0.93;;;;;24.50;99240.00;;;;2050804;28;20230;-56
2023/07/24 04:13:40;;;;;;;1.43;1.00;;;;;24.50;99232.00;;;;2044371;28;20221;-57
2023/07/24 04:14:40;;;;;;;1.50;1.10;;;;;24.50;99240.00;;;;2048348;28;20215;-56
2023/07/24 04:15:41;;;;;;;1.70;1.10;;;;;24.50;99233.00;;;;2050351;28;20359;-60
2023/07/24 04:16:41;;;;;;;1.23;1.13;;;;;24.50;99243.00;;;;2043595;28;20215;-56
2023/07/24 04:17:41;;;;;;;1.10;0.90;;;;;24.50;99239.00;;;;2050277;28;20735;-56
2023/07/24 04:18:42;;;;;;;1.53;1.20;;;;;24.50;99242.00;;;;2050355;28;20254;-56
2023/07/24 04:19:42;;;;;;;1.57;1.20;;;;;24.50;99240.00;;;;2048828;28;20318;-56
2023/07/24 04:20:42;;;;;;;1.30;1.00;;;;;24.50;99245.00;;;;2034935;28;20220;-57
2023/07/24 04:21:43;;;;;;;1.27;0.87;;;;;24.50;99242.00;;;;2050352;28;20576;-56
2023/07/24 04:22:43;;;;;;;1.40;1.10;;;;;24.50;99236.00;;;;2050760;28;20314;-56
2023/07/24 04:23:43;;;;;;;0.97;0.80;;;;;24.50;99250.00;;;;2048790;28;20223;-58
2023/07/24 04:24:44;;;;;;;1.33;1.10;;;;;24.50;99245.00;;;;2051883;28;20303;-59
2023/07/24 04:25:44;;;;;;;1.53;1.00;;;;;24.50;99247.00;;;;2040339;28;20326;-56
2023/07/24 04:26:45;;;;;;;1.30;1.10;;;;;24.50;99239.00;;;;2051449;28;20230;-57
2023/07/24 04:27:45;;;;;;;1.13;1.00;;;;;24.50;99244.00;;;;2049648;28;20220;-57
2023/07/24 04:28:45;;;;;;;1.00;0.90;;;;;24.50;99256.00;;;;2051351;28;20299;-56
2023/07/24 04:29:46;;;;;;;1.30;0.97;;;;;24.50;99185.00;;;;2044393;28;20231;-56
2023/07/24 04:30:46;;;;;;;1.17;0.90;;;;;24.50;99252.00;;;;2042031;28;20560;-56
2023/07/24 04:31:46;;;;;;;1.23;0.90;;;;;24.50;99246.00;;;;2050507;28;20579;-56
2023/07/24 04:32:47;;;;;;;1.47;1.20;;;;;24.50;99247.00;;;;2051063;28;22315;-56
2023/07/24 04:33:47;;;;;;;1.23;1.00;;;;;24.50;99246.00;;;;2051927;28;20273;-58
2023/07/24 04:34:47;;;;;;;1.03;0.83;;;;;24.50;99252.00;;;;2051078;28;20226;-57
2023/07/24 04:35:49;;;;;;;1.83;1.20;;;;;24.50;99251.00;;;;2040900;28;20220;-56
2023/07/24 04:36:49;;;;;;;1.20;1.00;;;;;24.50;99244.00;;;;2044701;28;20291;-56
2023/07/24 04:37:52;;;;;;;2.40;1.00;;;;;24.50;99245.00;;;;2050806;28;20212;-56
2023/07/24 04:38:52;;;;;;;1.50;1.13;;;;;24.50;99240.00;;;;2051214;28;20239;-55
2023/07/24 04:39:53;;;;;;;1.20;1.03;;;;;24.50;99249.00;;;;2046249;28;20220;-56
2023/07/24 04:40:53;;;;;;;1.27;1.13;;;;;24.50;99243.00;;;;2043848;28;20270;-55
2023/07/24 04:41:53;;;;;;;1.40;1.20;;;;;24.50;99248.00;;;;2059838;28;20223;-57
2023/07/24 04:42:54;;;;;;;1.57;1.00;;;;;24.50;99249.00;;;;2057598;28;20222;-55
2023/07/24 04:43:54;;;;;;;1.73;1.37;;;;;24.50;99242.00;;;;2051066;28;20215;-56
2023/07/24 04:44:54;;;;;;;1.30;1.20;;;;;24.50;99253.00;;;;2048302;28;20226;-56
2023/07/24 04:45:55;;;;;;;1.10;1.00;;;;;24.50;99256.00;;;;2043031;28;20687;-55
2023/07/24 04:46:55;;;;;;;1.20;0.90;;;;;24.50;99238.00;;;;2058490;28;20802;-55
2023/07/24 04:47:56;;;;;;;1.37;1.20;;;;;24.50;99234.00;;;;2057642;28;20725;-55
2023/07/24 04:48:56;;;;;;;1.50;1.37;;;;;24.50;99230.00;;;;2049831;28;20265;-56
2023/07/24 04:49:56;;;;;;;1.97;1.10;;;;;24.50;99227.00;;;;2051088;28;20215;-56
2023/07/24 04:50:57;;;;;;;1.80;1.20;;;;;24.50;99238.00;;;;2042372;28;20302;-56
2023/07/24 04:51:57;;;;;;;1.27;1.17;;;;;24.50;99233.00;;;;2051116;28;20211;-59
2023/07/24 04:52:57;;;;;;;1.20;1.07;;;;;24.50;99237.00;;;;2051791;28;20552;-59
2023/07/24 04:53:57;;;;;;;1.43;1.10;;;;;24.50;99246.00;;;;2051291;28;20215;-56
2023/07/24 04:54:58;;;;;;;1.20;0.83;;;;;24.50;99236.00;;;;2051125;28;20305;-56
2023/07/24 04:55:58;;;;;;;1.20;1.10;;;;;24.50;99237.00;;;;2039836;28;20207;-54
2023/07/24 04:56:58;;;;;;;1.20;0.97;;;;;24.50;99239.00;;;;2046801;28;20219;-54
2023/07/24 04:57:59;;;;;;;1.10;0.90;;;;;24.50;99236.00;;;;2044670;28;20212;-55
2023/07/24 04:58:59;;;;;;;1.60;1.03;;;;;24.50;99060.00;;;;2050788;28;20208;-55
2023/07/24 04:59:59;;;;;;;1.30;1.10;;;;;24.50;99236.00;;;;2051611;28;20607;-60
2023/07/24 05:01:04;;;;;;;1.80;1.00;;;;;24.50;99231.00;;;;2042252;28;22355;-54
2023/07/24 05:02:04;;;;;;;1.40;1.20;;;;;24.50;99238.00;;;;2051432;28;20231;-57
2023/07/24 05:03:06;;;;;;;1.50;1.30;;;;;24.50;99236.00;;;;2049850;28;20242;-57
2023/07/24 05:04:06;;;;;;;1.98;1.15;;;;;24.50;99234.00;;;;2046072;28;20377;-57
2023/07/24 05:05:07;;;;;;;1.13;1.03;;;;;24.50;99229.00;;;;2048997;28;20215;-56